Weather at Gjølstad Airfield

Public forecast

Using degrees Celsius for public forecast. Weather courtesy of forecast.io.

Closest aviation weather report (METAR) to Gjølstad Airfield

Closest report is Oslo Airport, Gardermoen, 27.8 nm (51.5 km) W.

2024/05/20 18:20 (retrieved 27 minutes ago)

ENGM 201820Z 09003KT 060V140 CAVOK 19/04 Q1019 NOSIG

Closest aviation forecast (TAF) to Gjølstad Airfield

Closest forecast is Oslo Airport, Gardermoen, 27.8 nm (51.5 km) W.

2024/05/20 18:36 (retrieved 11 minutes ago)

TAF ENGM 201700Z 2018/2118 VRB03KT CAVOK BECMG 2107/2109 15010KT